Date,TemperatureHighF,TemperatureAvgF,TemperatureLowF,DewpointHighF,DewpointAvgF,DewpointLowF,HumidityHigh,HumidityAvg,HumidityLow,PressureMaxIn,PressureMinIn,WindSpeedMaxMPH,WindSpeedAvgMPH,GustSpeedMaxMPH,PrecipitationSumIn
2014-1-1,22.3,16.0,10.5,12.0,8.1,4.0,86,71,58,30.40,30.21,7,1,0,0.00
2014-1-2,15.7,7.9,-1.7,13.0,4.9,-5.0,89,87,85,30.37,29.87,0,-978,0,0.00
2014-1-3,7.1,1.0,-8.4,3.0,-2.6,-12.0,88,85,79,30.44,29.76,14,-832,0,0.00
2014-1-4,21.1,5.7,-14.1,9.0,-1.5,-18.0,85,73,58,30.54,30.33,12,-706,0,0.00
2014-1-5,37.8,24.7,5.1,37.0,18.6,3.0,98,79,52,30.36,29.95,9,-350,0,0.15
2014-1-6,54.6,38.4,20.3,55.0,36.9,14.0,100,94,76,29.93,29.32,13,4,0,0.64
2014-1-7,20.0,6.5,2.3,14.0,-4.3,-10.0,79,62,53,30.22,29.50,9,4,6,0.00
2014-1-8,15.1,7.5,0.1,4.0,-0.7,-7.0,78,69,59,30.50,30.23,11,2,0,0.00
2014-1-9,25.2,12.9,5.9,11.0,6.2,3.0,89,75,50,30.68,30.46,10,1,0,0.00
2014-1-10,32.6,23.4,4.7,32.1,21.8,2.0,98,93,83,30.61,30.31,7,1,1,0.00
2014-1-11,56.2,47.9,32.1,56.0,47.8,32.0,100,99,98,30.30,29.28,19,4,4,0.45
2014-1-12,48.2,37.0,31.9,47.0,30.9,25.0,96,79,68,29.98,29.30,11,4,0,0.09
2014-1-13,48.7,37.3,27.4,38.0,29.3,23.0,86,74,53,30.13,29.91,12,2,0,0.00
2014-1-14,44.7,42.4,38.3,43.0,40.3,38.0,99,92,78,29.89,29.65,10,2,0,0.73
2014-1-15,44.3,34.2,27.4,38.0,32.2,27.0,98,92,73,30.02,29.78,4,1,0,0.01
2014-1-16,36.1,32.7,29.7,36.0,32.0,29.0,99,97,93,29.94,29.86,2,0,0,0.00
2014-1-17,38.6,31.7,27.7,33.0,27.5,23.0,99,85,54,29.99,29.91,6,1,0,0.01
2014-1-18,31.5,29.4,27.2,30.0,28.3,25.0,97,95,91,29.93,29.64,5,0,0,0.02
2014-1-19,29.0,25.4,23.0,28.0,22.9,20.0,97,90,82,29.75,29.55,20,3,0,0.00
2014-1-20,36.3,28.8,16.6,29.0,22.0,7.0,90,76,63,29.88,29.52,9,3,4,0.09
2014-1-21,16.1,9.6,5.5,5.0,0.2,-5.0,85,66,50,30.05,29.89,5,1,0,0.00
2014-1-22,11.5,4.7,-1.9,2.0,-4.6,-9.0,83,66,51,29.93,29.72,11,2,0,0.00
2014-1-23,15.3,5.2,-4.5,0.0,-4.9,-11.0,78,64,46,30.19,29.94,6,2,0,0.00
2014-1-24,12.5,6.0,-0.5,-2.0,-4.7,-8.0,71,62,46,30.29,30.07,10,2,2,0.00
2014-1-25,29.6,19.4,9.3,23.0,12.3,-2.0,98,74,58,30.06,29.36,13,5,0,0.00
2014-1-26,17.7,12.5,6.6,16.0,2.7,-4.0,91,66,49,29.88,29.37,9,3,0,0.00
2014-1-27,36.9,24.3,12.6,34.0,16.8,0.0,93,74,45,30.00,29.58,10,3,0,0.10
2014-1-28,14.0,9.2,4.1,-1.0,-5.3,-11.0,62,52,43,30.32,30.01,8,1,0,0.00
2014-1-29,19.8,12.5,4.0,0.0,-2.8,-5.0,67,52,36,30.25,30.00,7,1,0,0.00
2014-1-30,24.6,13.0,-1.0,8.0,2.0,-6.0,84,63,45,30.46,30.20,6,1,0,0.00
2014-1-31,35.4,27.0,14.2,22.0,16.8,9.0,91,67,48,30.23,30.06,18,2,0,0.01
2014-2-1,26.0,25.1,24.2,19.0,18.9,18.0,79,77,75,30.25,30.22,0,0,0,0.00
2014-2-2,45.7,36.6,31.2,38.3,34.3,30.1,97,92,69,30.09,29.88,4,1,0,0.07
2014-2-3,31.2,26.7,14.7,30.2,24.0,13.0,97,90,69,30.31,30.10,3,0,0,0.00
2014-2-4,30.8,20.2,7.6,22.5,16.0,5.5,95,84,70,30.49,30.31,3,0,0,0.10
2014-2-5,25.0,24.5,23.8,21.6,19.7,17.6,90,82,73,30.32,30.23,3,1,0,0.00
2014-2-7,0.3,0.2,0.2,-2.4,-2.5,-2.5,88,88,88,30.22,30.22,0,0,0,0.00
2014-2-10,20.3,20.3,20.3,11.1,11.1,11.1,67,67,67,30.06,30.06,2,2,2,0.00
2014-2-11,-2.2,-2.4,-2.5,-6.0,-6.4,-7.0,83,82,81,30.48,30.48,0,0,0,0.00
2014-2-12,24.4,9.8,-7.9,4.0,-2.1,-12.0,87,62,33,30.60,30.43,7,1,0,0.00
2014-2-13,30.1,23.4,10.5,30.0,21.7,5.0,98,93,77,30.42,29.04,13,4,0,0.00
2014-2-14,30.8,27.2,22.8,30.0,25.3,21.0,98,92,83,29.76,28.90,13,3,9,0.00
2014-2-15,29.2,23.1,15.8,27.0,21.4,14.0,100,93,86,29.87,29.57,8,1,0,0.00
2014-2-16,25.9,20.0,15.3,24.0,12.1,7.0,94,72,55,30.00,29.57,9,3,0,0.00
2014-2-17,25.1,13.0,-0.1,6.0,-1.3,-6.0,77,55,33,30.40,30.00,9,2,4,0.00
2014-2-18,25.2,14.6,-2.6,24.0,10.0,-8.0,95,82,54,30.39,29.98,8,1,0,0.00
2014-2-19,30.5,21.3,7.1,28.0,19.1,5.0,97,91,77,30.15,29.78,7,1,0,0.00
2014-2-20,42.0,33.6,25.1,31.0,28.5,24.0,97,83,55,30.24,29.92,6,1,0,0.36
2014-2-21,37.8,33.4,30.0,37.0,33.0,29.6,99,98,97,30.16,29.71,11,2,0,0.55
2014-2-22,46.2,36.4,29.7,33.0,27.9,23.0,99,75,44,29.99,29.86,16,3,0,0.25
2014-2-23,44.5,36.3,26.7,29.0,26.2,23.0,90,68,49,30.00,29.79,6,1,0,0.00
2014-2-24,34.4,25.7,17.8,28.0,13.1,7.0,90,60,46,29.95,29.77,11,4,0,0.00
2014-2-25,23.6,17.5,13.0,10.0,6.8,5.0,72,63,51,29.99,29.90,12,2,6,0.00
2014-2-26,23.1,11.8,0.3,10.0,1.0,-7.0,87,64,39,29.95,29.80,12,2,0,0.00
2014-2-27,23.0,10.9,-1.0,13.0,1.1,-7.0,87,66,40,29.95,29.62,10,2,0,0.00
2014-2-28,19.5,8.1,-1.6,-5.0,-7.1,-10.0,75,52,29,30.47,29.96,8,1,0,0.00
2014-3-1,30.2,15.8,-4.8,16.0,4.1,-9.0,83,63,38,30.48,30.14,8,2,4,0.00
2014-3-2,35.1,28.6,23.0,24.0,18.7,13.0,85,67,55,30.13,29.98,5,1,0,0.00
2014-3-3,22.7,13.7,-1.2,13.0,1.9,-7.0,78,60,42,30.32,30.01,7,1,0,0.00
2014-3-4,23.6,11.1,-7.5,9.0,-1.9,-12.0,84,59,37,30.42,30.30,6,1,0,0.00
2014-3-5,24.2,18.1,9.4,18.0,12.2,4.0,90,78,66,30.52,30.27,3,0,0,0.00
2014-3-6,26.6,11.7,-5.1,3.0,-4.2,-10.0,82,54,22,30.66,30.53,6,1,0,0.01
2014-3-7,35.8,18.6,-5.0,21.0,8.1,-9.0,86,66,42,30.54,30.00,5,0,0,0.00
2014-3-8,49.4,33.4,16.3,29.0,23.3,14.0,90,69,44,30.00,29.75,8,1,0,0.00
2014-3-9,36.6,29.3,22.5,25.0,14.7,11.0,78,56,37,29.95,29.88,8,1,0,0.00
2014-3-10,39.2,31.3,23.9,28.0,21.3,12.0,87,67,55,29.90,29.63,7,1,0,0.00
2014-3-11,51.9,39.6,30.8,35.0,29.9,27.0,91,71,43,29.74,29.52,9,2,0,0.00
2014-3-12,43.2,36.5,33.2,38.0,32.5,29.0,98,86,65,29.75,29.05,9,2,0,0.10
2014-3-13,33.1,15.3,9.4,32.0,9.8,-1.0,97,79,60,29.97,29.03,12,4,0,0.00
2014-3-14,33.3,19.8,3.5,21.0,9.1,-2.0,81,65,43,30.22,29.95,15,3,0,0.00
2014-3-15,49.0,38.3,31.0,36.0,29.7,20.0,96,72,53,29.94,29.71,11,4,6,0.02
2014-3-16,30.9,24.0,17.4,19.0,10.1,4.0,77,56,39,30.22,29.91,8,3,0,0.00
2014-3-17,29.5,18.0,10.7,7.0,0.4,-5.0,76,48,31,30.20,30.07,6,1,0,0.00
2014-3-18,36.9,22.1,5.4,17.0,7.2,-1.0,86,57,31,30.38,30.19,6,1,0,0.00
2014-3-19,39.6,28.4,14.8,29.0,21.3,12.0,92,76,50,30.40,30.01,13,2,0,0.00
2014-3-20,43.0,35.9,30.4,37.0,31.1,24.0,98,84,61,30.00,29.66,8,2,0,0.12
2014-3-21,37.3,31.8,26.5,26.0,22.9,20.0,77,70,57,30.06,29.76,11,3,0,0.00
2014-3-22,48.2,32.5,18.7,37.0,24.4,17.0,92,73,53,30.09,29.71,12,2,0,0.01
2014-3-23,35.3,30.1,19.3,24.0,16.6,5.0,75,58,45,30.09,29.94,9,2,0,0.00
2014-3-24,27.9,18.5,9.0,9.0,2.3,-2.0,67,50,34,30.18,30.08,10,2,1,0.00
2014-3-25,31.8,21.3,6.0,18.0,9.7,3.0,88,63,44,30.17,29.95,9,1,0,0.00
2014-3-26,29.8,25.0,16.9,17.0,11.0,1.0,70,56,41,30.06,29.68,19,5,0,0.00
2014-3-27,37.6,25.4,9.3,15.0,6.2,-1.0,68,46,32,30.37,30.07,11,2,0,0.00
2014-3-28,46.7,39.0,30.2,46.0,33.6,15.0,98,82,51,30.27,29.98,12,4,0,0.14
2014-3-29,47.5,40.5,35.1,46.0,38.1,34.0,98,91,72,30.27,29.98,9,3,0,0.63
2014-3-30,36.8,35.2,33.6,36.0,34.5,32.8,98,97,96,29.97,29.65,16,5,8,1.35
2014-3-31,35.4,32.9,31.5,33.0,31.2,28.0,97,93,84,30.06,29.73,9,2,0,0.81
2014-4-1,52.4,39.2,26.9,36.0,30.5,25.0,93,73,51,30.13,30.04,6,1,0,0.04
2014-4-2,54.0,39.0,26.9,38.0,31.6,26.0,96,77,53,30.15,30.04,9,1,0,0.00
2014-4-3,52.0,38.7,25.0,29.0,26.5,24.0,95,65,39,30.16,30.07,6,1,0,0.00
2014-4-4,44.2,36.8,31.7,33.0,28.5,24.0,95,73,56,30.17,29.90,10,3,0,0.19
2014-4-5,44.6,36.8,31.9,40.0,31.7,23.0,98,83,61,29.96,29.73,10,3,0,0.10
2014-4-6,53.9,38.7,28.1,27.0,23.3,21.0,83,58,29,30.22,29.96,7,2,0,0.00
2014-4-7,55.7,42.1,27.5,38.0,27.3,21.0,95,61,32,30.25,29.91,8,1,0,0.05
2014-4-8,60.2,48.0,38.7,56.0,44.6,33.0,100,89,63,29.91,29.32,14,3,8,0.29
2014-4-9,54.7,40.8,28.1,37.0,26.3,10.0,97,62,30,29.99,29.54,13,2,0,0.00
2014-4-10,57.4,41.6,23.2,33.0,23.9,13.0,86,53,27,30.18,30.00,16,4,0,0.00
2014-4-11,66.8,52.1,43.7,50.0,42.1,33.0,97,71,47,30.05,29.93,8,2,0,0.16
2014-4-12,65.0,49.6,33.3,44.0,37.6,33.0,99,69,31,30.23,29.99,6,1,0,0.05
2014-4-13,68.2,49.6,38.2,53.0,42.0,34.0,91,76,53,30.26,30.02,7,1,0,0.01
2014-4-14,72.8,63.0,51.3,58.0,54.2,48.0,89,74,51,30.03,29.85,18,8,12,0.00
2014-4-15,60.8,55.9,34.5,59.0,54.4,34.0,98,95,86,29.88,29.53,16,5,13,0.77
2014-4-16,37.9,30.9,23.5,33.0,23.3,18.0,97,75,52,30.62,29.75,16,2,0,0.25
2014-4-17,41.5,31.6,23.3,25.0,20.8,16.0,84,65,47,30.82,30.63,9,3,0,0.00
2014-4-18,44.0,34.2,24.8,31.0,27.6,23.0,91,78,60,30.67,30.28,6,1,2,0.00
2014-4-19,60.1,43.9,29.1,38.0,31.5,27.0,95,66,39,30.43,30.21,6,1,0,0.00
2014-4-20,56.0,42.5,26.2,29.0,23.7,19.0,90,53,26,30.53,30.36,6,1,0,0.00
2014-4-21,68.5,49.3,28.4,32.0,24.7,18.0,89,46,15,30.35,29.88,10,2,0,0.00
2014-4-22,74.1,55.7,40.1,50.0,41.5,32.0,97,64,31,29.87,29.49,8,2,0,0.07
2014-4-23,50.9,46.1,40.8,50.0,42.0,32.0,98,86,66,29.67,29.44,20,3,15,0.33
2014-4-24,54.4,43.6,34.6,32.0,25.8,20.0,72,51,35,29.96,29.66,23,5,0,0.00
2014-4-25,61.8,47.1,27.5,33.0,27.0,23.0,89,51,24,30.04,29.83,9,1,0,0.00
2014-4-26,48.1,41.3,37.6,42.0,37.7,28.0,98,89,51,29.88,29.77,5,1,0,0.66
2014-4-27,47.5,41.7,37.6,42.0,38.5,34.0,99,89,74,30.09,29.84,6,1,2,0.12
2014-4-28,59.0,45.8,32.9,40.0,37.0,31.0,95,74,48,30.23,30.02,10,2,0,0.00
2014-4-29,44.1,38.3,35.9,40.0,35.5,33.0,95,89,80,30.53,30.23,13,4,0,0.05
2014-4-30,39.1,37.2,35.2,38.0,36.0,34.0,98,95,91,30.54,30.18,12,4,0,0.85
2014-5-1,63.8,50.4,38.5,59.0,49.4,38.0,100,96,83,30.19,29.69,6,1,0,0.68
2014-5-2,61.4,51.4,40.7,51.0,43.4,40.0,99,77,50,29.83,29.69,7,1,0,0.01
2014-5-3,62.9,52.3,39.8,45.0,41.5,38.0,96,69,45,29.89,29.73,6,1,0,0.01
2014-5-4,54.5,48.5,44.0,46.0,40.6,37.0,94,75,56,29.72,29.57,14,4,0,0.01
2014-5-5,59.4,50.0,40.8,43.0,40.5,37.0,87,71,52,29.89,29.66,9,2,0,0.00
2014-5-6,60.4,47.2,32.6,42.0,34.2,29.0,98,65,36,30.08,29.87,7,1,0,0.00
2014-5-7,66.1,49.3,29.5,35.0,31.2,27.0,93,55,27,30.22,30.08,9,1,2,0.00
2014-5-8,68.7,52.3,35.9,53.0,42.8,32.0,95,73,38,30.21,30.09,8,1,0,0.00
2014-5-9,53.4,51.1,47.8,53.0,49.6,45.0,100,95,87,30.23,30.09,7,1,0,0.02
2014-5-10,76.9,63.1,53.3,65.0,60.0,53.0,100,91,56,30.09,29.78,12,3,0,0.17
2014-5-11,76.0,63.0,50.8,59.0,43.8,35.0,98,56,23,30.05,29.81,10,2,1,0.00
2014-5-12,83.4,65.4,43.1,56.0,45.9,41.0,93,56,27,30.12,29.99,14,1,0,0.00
2014-5-13,66.9,49.4,42.3,48.0,42.1,38.0,88,77,49,30.33,30.07,10,3,0,0.00
2014-5-14,72.8,56.9,41.3,56.0,45.0,38.0,91,68,40,30.34,30.25,6,1,0,0.00
2014-5-15,74.4,64.9,58.2,64.0,60.4,55.0,98,86,68,30.29,30.17,8,2,0,0.02
2014-5-16,64.0,62.0,59.9,63.0,61.4,59.0,100,98,92,30.17,29.94,10,2,0,0.19
2014-5-17,67.1,59.4,44.9,63.0,51.0,40.0,100,77,46,30.09,29.80,9,2,1,1.22
2014-5-18,66.9,53.3,38.9,45.0,38.5,33.0,95,62,31,30.14,30.05,9,1,0,0.00
2014-5-19,62.0,52.4,36.7,45.0,38.0,34.0,92,61,37,30.13,30.04,9,1,0,0.00
2014-5-20,74.1,58.8,45.7,45.0,41.4,39.0,82,56,31,30.06,29.96,14,2,0,0.00
2014-5-21,74.6,58.6,41.2,51.0,45.1,40.0,96,66,32,30.01,29.90,6,0,0,0.00
2014-5-22,61.2,53.7,46.9,55.0,51.1,45.0,99,91,74,29.94,29.86,6,0,0,0.48
2014-5-23,57.1,53.1,48.7,57.0,52.8,48.0,100,98,95,29.99,29.87,5,1,0,0.03
2014-5-24,60.2,52.8,48.1,54.0,50.3,47.0,99,91,76,30.07,29.96,5,0,0,0.12
2014-5-25,69.9,57.3,44.0,58.0,52.5,44.0,100,85,62,30.10,30.02,7,0,0,0.01
2014-5-26,74.9,61.7,48.7,61.0,55.2,48.0,99,81,57,30.04,29.83,7,1,0,0.02
2014-5-27,75.8,58.5,44.8,62.0,54.4,44.0,97,87,63,29.94,29.83,8,1,0,0.32
2014-5-28,46.5,44.6,41.3,46.0,44.1,40.0,100,98,95,30.25,29.90,9,2,0,0.19
2014-5-29,64.3,50.1,34.4,47.0,41.1,34.0,99,75,44,30.28,30.16,2,0,0,0.00
2014-5-30,70.1,54.0,42.0,58.0,49.5,41.0,98,86,56,30.16,30.00,6,0,0,0.15
2014-5-31,61.3,51.9,42.7,57.0,48.8,42.0,99,90,67,30.33,30.07,6,1,0,0.04
2014-6-1,75.3,57.4,37.7,52.0,44.7,37.0,99,68,34,30.37,30.25,4,0,0,0.00
2014-6-2,77.9,62.3,43.9,58.0,51.1,42.0,96,71,42,30.25,30.02,6,1,0,0.00
2014-6-3,82.1,66.0,51.8,66.0,58.4,51.0,98,78,55,30.04,29.86,5,0,0,0.00
2014-6-4,66.9,59.7,53.9,64.0,58.4,53.0,99,95,88,29.89,29.77,3,0,0,0.43
2014-6-5,60.4,57.6,52.0,59.0,57.1,52.0,100,98,90,29.79,29.67,3,0,0,0.33
2014-6-6,67.6,58.1,50.9,57.0,54.0,50.0,100,87,67,29.91,29.72,7,1,0,0.01
2014-6-7,78.3,63.2,47.3,61.0,54.9,47.0,100,78,46,29.98,29.90,4,0,0,0.00
2014-6-8,80.9,66.5,50.9,63.0,56.3,50.0,100,74,41,29.97,29.88,6,0,0,0.00
2014-6-9,71.8,61.6,54.6,63.0,58.2,54.0,99,89,66,30.00,29.91,9,0,0,0.12
2014-6-10,76.7,65.0,58.9,69.0,62.2,56.0,100,91,74,30.10,29.95,5,1,0,0.03
2014-6-11,64.5,59.1,55.1,56.0,53.2,51.0,92,81,62,30.18,30.10,6,1,0,0.00
2014-6-12,63.0,58.1,53.6,61.0,55.7,50.0,99,92,80,30.16,30.06,6,1,0,0.02
2014-6-13,60.7,58.7,57.2,61.0,58.6,57.0,100,99,98,30.05,29.81,7,1,0,0.35
2014-6-14,69.5,60.6,50.1,64.0,57.8,49.0,100,91,73,29.95,29.81,3,0,0,0.01
2014-6-15,74.4,61.4,49.9,60.0,53.9,48.0,97,78,57,30.09,29.94,7,1,0,0.00
2014-6-16,77.8,63.7,48.4,57.0,51.0,47.0,96,67,37,30.17,30.04,4,0,0,0.00
2014-6-17,81.7,69.6,56.2,69.0,62.9,54.0,99,80,56,30.08,29.85,4,0,0,0.04
2014-6-18,79.5,70.9,64.5,69.0,64.7,61.0,99,82,60,29.96,29.73,6,1,0,0.20
2014-6-19,77.9,66.6,57.9,63.0,55.7,43.0,99,71,40,29.99,29.93,4,1,0,0.00
2014-6-20,71.3,59.5,46.4,51.0,46.2,41.0,95,64,39,30.00,29.91,7,1,0,0.00
2014-6-21,70.3,56.8,42.1,53.0,47.6,41.0,97,74,48,30.00,29.91,6,0,0,0.00
2014-6-22,71.3,60.0,45.6,58.0,51.8,45.0,97,77,51,30.05,29.96,3,0,0,0.00
2014-6-23,77.6,63.2,48.4,62.0,55.0,48.0,99,77,50,30.17,30.05,7,0,0,0.00
2014-6-24,77.0,65.2,52.8,62.0,56.9,50.0,96,76,58,30.17,30.01,10,2,0,0.00
2014-6-25,81.6,71.3,61.6,72.0,65.0,55.0,92,81,68,30.01,29.84,13,2,0,0.00
2014-6-26,76.8,68.3,60.6,71.0,67.0,60.0,100,95,79,30.01,29.79,4,0,0,0.89
2014-6-27,75.6,64.8,54.7,64.0,57.6,53.0,100,80,51,30.22,30.01,8,0,0,0.00
2014-6-28,81.1,66.2,50.9,64.0,55.4,50.0,100,72,43,30.29,30.22,3,0,0,0.00
2014-6-29,81.1,68.5,54.2,66.0,60.1,53.0,99,77,49,30.28,30.10,7,0,0,0.00
2014-6-30,81.9,69.7,55.1,67.0,62.3,54.0,95,79,60,30.11,29.93,6,1,0,0.00
2014-7-1,83.3,74.3,61.7,73.0,68.5,61.0,97,83,68,29.95,29.79,10,2,0,0.00
2014-7-2,87.1,73.6,66.8,79.0,70.4,66.0,99,90,71,29.92,29.81,9,1,0,0.51
2014-7-3,83.2,72.3,66.4,76.0,70.8,66.0,100,95,75,30.02,29.88,6,0,0,0.60
2014-7-4,67.3,63.9,59.0,67.0,63.7,59.0,100,99,94,30.00,29.84,5,0,0,0.74
2014-7-5,73.1,63.9,53.9,58.0,54.2,51.0,99,73,48,30.05,29.84,8,1,0,0.04
2014-7-6,77.4,66.9,52.4,61.0,56.0,49.0,93,70,49,30.04,29.89,11,1,0,0.00
2014-7-7,81.3,70.4,62.6,71.0,65.3,60.0,99,84,68,29.89,29.70,8,1,0,0.40
2014-7-8,81.6,73.1,64.9,74.0,69.2,65.0,100,88,72,29.80,29.66,8,2,0,0.19
2014-7-9,79.6,72.6,64.1,70.0,66.1,63.0,97,81,61,29.98,29.66,7,1,1,0.36
2014-7-10,73.8,65.2,58.4,63.0,60.2,58.0,100,85,59,30.17,29.94,3,0,0,0.00
2014-7-11,76.5,65.5,55.3,64.0,57.9,54.0,99,78,54,30.25,30.17,3,0,0,0.00
2014-7-12,81.7,68.1,52.4,66.0,60.2,52.0,99,78,53,30.24,30.12,7,0,0,0.00
2014-7-13,78.7,70.0,61.1,71.0,64.9,58.0,99,84,69,30.13,29.89,16,2,0,0.08
2014-7-14,80.0,72.4,68.0,73.0,69.9,68.0,100,92,73,29.91,29.85,6,0,0,0.09
2014-7-15,77.7,72.4,69.9,74.0,71.5,70.0,100,97,83,29.86,29.75,8,1,0,0.48
2014-7-16,70.8,65.4,62.1,70.0,64.9,62.0,100,94,89,29.88,29.75,3,0,0,0.06
2014-7-17,75.7,36.7,56.5,62.0,31.9,56.0,97,40,56,30.08,29.88,3,0,0,0.00
2014-7-18,75.9,63.1,51.0,63.0,56.4,51.0,100,81,50,30.25,30.09,2,0,0,0.00
2014-7-19,72.0,64.2,54.4,64.0,59.9,54.0,99,87,68,30.29,30.22,0,0,0,0.00
2014-7-20,74.6,64.6,56.5,62.0,58.2,53.0,99,81,51,30.23,30.15,6,0,0,0.00
2014-7-21,78.5,65.6,54.8,63.0,59.1,54.0,99,81,54,30.22,30.15,2,0,0,0.00
2014-7-22,83.4,71.3,57.5,71.0,65.1,57.0,100,82,58,30.17,30.00,5,0,0,0.00
2014-7-23,85.2,74.3,64.2,74.0,69.8,64.0,99,86,66,30.00,29.74,8,1,0,0.26
2014-7-24,75.4,67.4,56.8,69.0,63.1,56.0,100,87,62,29.92,29.75,5,0,0,0.01
2014-7-25,73.5,57.2,49.1,62.0,54.2,49.0,99,91,60,30.01,29.92,2,0,0,0.00
2014-8-5,80.4,73.7,63.2,72.0,66.2,62.0,100,79,58,30.04,29.92,4,0,0,0.03
2014-8-6,75.1,66.4,55.7,66.0,61.4,54.0,100,85,59,29.91,29.81,5,0,0,0.00
2014-8-7,71.6,58.6,49.0,63.0,55.6,48.0,99,90,65,29.98,29.87,6,0,0,0.14
2014-8-8,76.1,61.2,48.2,62.0,55.7,48.0,100,84,54,30.07,29.97,6,0,0,0.01
2014-8-9,79.0,64.0,50.0,64.0,57.6,50.0,100,82,51,30.13,30.06,4,0,0,0.00
2014-8-10,80.5,66.2,53.2,64.0,58.5,53.0,99,79,47,30.16,30.11,5,0,0,0.00
2014-8-11,82.4,67.5,53.9,66.0,60.7,53.0,100,81,51,30.16,30.10,4,0,0,0.00
2014-8-12,74.9,66.3,56.1,65.0,60.7,56.0,100,83,62,30.13,30.01,6,0,1,0.00
2014-8-13,67.0,63.9,59.8,65.0,63.4,60.0,100,98,89,30.00,29.63,15,2,0,2.39
2014-8-14,68.0,59.4,51.8,60.0,54.1,51.0,100,84,60,29.89,29.70,5,1,0,0.00
2014-8-15,64.0,56.9,51.7,55.0,53.6,51.0,99,89,70,29.95,29.85,3,0,0,0.02
2014-8-16,68.7,60.3,51.3,58.0,54.7,50.0,97,83,62,30.00,29.92,4,0,0,0.00
2014-8-17,71.4,61.8,53.0,63.0,57.5,52.0,99,86,67,29.92,29.80,6,0,0,0.00
2014-8-18,71.3,58.8,48.3,58.0,52.3,48.0,99,81,54,29.91,29.82,8,0,0,0.00
2014-8-19,73.4,58.2,43.6,58.0,51.5,43.0,99,81,50,29.98,29.90,3,0,0,0.00
2014-8-20,78.3,63.4,49.7,66.0,57.0,49.0,100,81,60,30.07,29.98,4,0,0,0.00
2014-8-21,68.9,61.1,54.4,63.0,57.9,53.0,100,90,69,30.10,30.05,3,0,0,0.09
2014-8-22,65.7,60.7,57.7,63.0,59.8,57.0,99,96,89,30.12,30.08,5,0,0,0.05
2014-8-23,67.5,60.8,52.4,61.0,57.7,52.0,97,89,75,30.15,30.10,3,0,0,0.00
2014-8-24,75.3,62.3,49.5,64.0,57.3,49.0,100,85,60,30.18,30.13,6,0,0,0.00
2014-8-25,83.3,66.7,52.4,68.0,60.6,52.0,100,83,50,30.20,30.12,1,0,0,0.00
2014-8-26,82.3,68.2,55.6,70.0,62.2,55.0,100,84,51,30.18,30.05,4,0,0,0.00
2014-8-27,82.4,69.7,60.5,72.0,66.6,60.0,99,90,70,30.06,29.86,4,0,0,0.13
2014-8-28,73.2,63.5,53.1,66.0,58.5,51.0,100,85,57,30.02,29.83,8,1,0,0.00
2014-8-29,71.1,58.5,45.4,61.0,53.9,45.0,99,86,61,30.28,30.03,3,0,0,0.00
2014-8-30,71.3,61.6,50.3,61.0,57.0,50.0,100,86,61,30.31,30.14,6,1,0,0.00
2014-8-31,75.4,69.9,63.0,72.0,68.1,62.0,100,94,89,30.14,29.96,7,1,0,0.10
2014-9-1,80.4,72.3,67.1,73.0,69.9,67.0,100,93,74,30.00,29.92,5,0,0,0.01
2014-9-2,83.5,71.8,65.0,75.0,70.5,65.0,100,96,72,29.95,29.73,5,0,0,0.17
2014-9-3,75.9,67.4,57.5,71.0,62.7,57.0,99,86,58,30.11,29.73,7,0,0,0.00
2014-9-4,78.1,64.3,50.3,66.0,59.3,50.0,100,85,59,30.22,30.11,4,0,0,0.00
2014-9-5,81.6,69.9,57.6,73.0,66.3,57.0,100,89,73,30.18,29.99,6,1,0,0.00
2014-9-6,82.7,73.5,62.9,76.0,70.7,63.0,99,91,71,29.99,29.76,10,2,0,0.69
2014-9-7,70.0,61.6,51.6,63.0,57.0,51.0,100,86,58,30.23,29.91,5,0,0,0.03
2014-9-8,68.6,58.4,50.6,56.0,52.5,49.0,98,82,61,30.39,30.23,6,1,0,0.00
2014-9-9,65.1,57.8,52.1,57.0,52.5,50.0,95,83,68,30.37,30.22,7,1,0,0.00
2014-9-10,65.7,58.7,54.7,59.0,56.3,54.0,98,92,76,30.21,30.05,5,0,0,0.00
2014-9-11,69.7,63.4,56.2,68.0,62.1,54.0,100,95,87,30.05,29.80,11,1,0,0.02
2014-9-12,64.8,55.7,47.5,54.0,50.4,45.0,99,84,62,30.25,29.93,8,1,0,0.00
2014-9-13,57.9,52.1,46.0,54.0,49.6,43.0,99,91,83,30.30,30.13,4,0,0,0.22
2014-9-14,58.0,49.7,42.8,53.0,46.3,42.0,99,89,66,30.26,30.14,7,1,0,0.01
2014-9-15,58.3,48.6,39.2,48.0,44.7,38.0,98,87,64,30.27,30.13,2,0,0,0.00
2014-9-16,59.0,51.0,44.3,56.0,49.9,44.0,99,96,86,30.13,29.98,1,0,0,0.06
2014-9-17,62.9,50.0,38.0,52.0,45.5,38.0,100,86,57,30.06,29.98,4,0,0,0.00
2014-9-18,65.5,51.5,37.8,56.0,47.2,37.0,100,86,61,30.17,29.98,6,0,0,0.00
2014-9-19,53.0,45.0,35.9,43.0,37.0,34.0,95,75,50,30.44,30.17,4,0,0,0.00
2014-9-20,64.4,52.1,35.3,58.0,48.6,34.0,97,88,78,30.42,30.12,8,1,0,0.00
2014-9-21,72.5,64.3,53.5,70.0,63.7,52.0,100,98,89,30.12,29.58,4,0,0,1.00
2014-9-22,65.9,56.7,40.6,66.0,51.1,39.0,100,82,61,30.09,29.56,9,1,0,0.00
2014-9-23,62.4,48.1,34.4,52.0,43.7,34.0,99,86,62,30.48,30.10,4,0,0,0.00
2014-9-24,62.1,53.1,43.1,54.0,48.9,42.0,99,86,70,30.65,30.48,6,0,0,0.00
2014-9-25,56.9,51.9,47.0,52.0,49.1,46.0,99,91,76,30.56,30.28,3,0,0,0.00
2014-9-26,69.3,57.3,47.7,59.0,53.0,47.0,99,87,65,30.28,30.18,7,0,0,0.00
2014-9-27,76.4,59.9,44.6,66.0,55.9,44.0,100,88,61,30.23,30.17,2,0,0,0.00
2014-9-28,77.1,62.1,48.1,68.0,58.7,48.0,100,90,65,30.19,30.01,2,0,0,0.00
2014-9-29,72.7,60.1,52.8,63.0,57.1,52.0,100,91,67,30.04,29.95,6,1,0,0.00
2014-9-30,55.1,53.9,52.1,55.0,53.4,52.0,99,98,97,30.05,29.99,4,0,0,0.07
2014-10-1,55.1,54.0,53.5,55.0,53.8,53.0,99,99,98,30.14,30.03,6,1,0,0.45
2014-10-2,54.4,52.1,44.7,54.0,51.6,44.0,99,98,94,30.20,30.12,7,1,1,0.18
2014-10-3,59.7,50.1,42.0,54.0,47.6,42.0,100,91,72,30.18,29.92,5,0,0,0.00
2014-10-4,59.9,53.8,49.7,60.0,53.7,49.0,100,100,98,29.92,29.54,8,1,0,0.31
2014-10-5,53.7,45.9,35.0,52.0,41.8,34.0,99,87,58,29.99,29.59,3,0,0,0.01
2014-10-6,60.8,46.1,31.4,50.0,41.4,31.0,99,85,60,30.17,29.99,7,1,0,0.00
2014-10-7,67.6,58.7,46.4,60.0,54.9,46.0,100,88,69,30.16,29.98,7,2,0,0.00
2014-10-8,64.5,58.4,49.5,59.0,53.3,41.0,99,84,61,29.97,29.72,13,2,0,0.31
2014-10-9,59.0,48.3,39.1,44.0,40.1,37.0,95,75,52,30.02,29.88,4,1,0,0.00
2014-10-10,56.0,45.2,38.9,42.0,39.6,37.0,95,82,55,30.17,30.02,5,0,0,0.00
2014-10-11,49.2,43.3,39.0,47.0,42.4,38.0,99,96,91,30.17,30.09,2,0,0,0.17
2014-10-12,55.6,43.9,32.6,45.0,39.8,32.0,99,87,59,30.33,30.17,5,0,0,0.00
2014-10-13,56.2,45.7,30.9,53.0,43.6,30.0,99,92,82,30.39,30.29,5,0,0,0.00
2014-10-14,70.4,61.9,54.9,65.0,60.0,53.0,100,93,77,30.29,30.14,8,1,0,0.01
2014-10-15,73.6,67.1,61.4,68.0,64.8,61.0,98,92,76,30.15,29.96,10,1,0,0.01
2014-10-16,67.0,64.9,57.7,67.0,64.8,58.0,100,100,98,29.95,29.67,8,1,0,2.66
2014-10-17,65.0,58.6,54.1,59.0,55.5,52.0,100,90,68,29.69,29.61,6,1,0,0.01
2014-10-18,61.4,54.6,49.5,60.0,53.3,47.0,100,95,88,29.68,29.52,8,0,0,0.08
2014-10-19,49.4,44.4,36.3,48.0,37.5,29.0,93,77,63,29.99,29.62,6,1,0,0.00
2014-10-20,50.2,39.4,27.6,40.0,33.5,26.0,95,80,61,30.08,29.98,7,1,0,0.00
2014-10-21,58.4,49.3,41.1,52.0,46.9,40.0,98,91,78,30.03,29.92,7,1,0,0.01
2014-10-22,48.5,46.4,44.7,48.0,45.9,44.0,99,98,97,30.05,29.85,15,4,12,0.91
2014-10-23,48.9,46.6,44.6,48.0,46.1,44.0,98,98,96,29.86,29.67,14,4,6,2.24
2014-10-24,47.2,45.1,43.1,47.0,44.0,42.0,99,95,89,29.78,29.71,14,1,0,0.15
2014-10-25,58.7,47.1,35.0,48.0,42.8,34.0,99,86,61,29.81,29.54,5,0,0,0.00
2014-10-26,51.7,46.7,40.0,46.0,41.5,38.0,93,82,67,29.73,29.46,6,1,0,0.00
2014-10-27,56.2,47.0,37.3,42.0,40.2,36.0,95,78,59,30.05,29.73,7,1,0,0.00
2014-10-28,65.6,49.6,34.7,55.0,45.7,34.0,98,87,63,30.08,29.95,7,0,0,0.00
2014-10-29,64.9,52.2,42.9,59.0,50.4,42.0,100,94,74,29.95,29.81,12,0,0,0.09
2014-10-30,50.8,40.6,31.6,45.0,37.5,31.0,99,89,68,30.03,29.90,5,0,0,0.00
2014-10-31,48.3,41.9,33.2,39.0,36.4,32.0,97,81,68,30.07,29.98,6,1,0,0.00
2014-11-1,41.6,38.7,35.2,39.0,35.8,33.0,96,89,76,29.99,29.83,8,3,0,0.40
2014-11-2,38.3,35.1,33.2,34.0,26.9,17.0,93,73,51,29.87,29.71,10,4,0,0.00
2014-11-3,48.0,36.9,24.5,31.0,23.3,15.0,83,61,29,30.12,29.87,6,1,0,0.00
2014-11-4,58.3,46.2,32.5,40.0,34.2,28.0,92,65,42,30.17,30.02,6,0,0,0.00
2014-11-5,58.6,47.0,34.4,44.0,38.1,32.0,94,73,48,30.14,29.98,5,1,0,0.00
2014-11-6,44.4,40.4,34.4,43.0,39.3,33.0,99,96,88,30.14,29.55,4,0,0,0.26
2014-11-7,42.3,38.3,33.3,42.0,35.0,28.0,99,88,76,29.82,29.50,12,2,0,0.02
2014-11-8,43.0,34.9,28.1,29.0,25.5,22.0,84,69,52,29.98,29.82,9,1,0,0.00
2014-11-9,50.0,39.5,28.3,38.0,32.5,27.0,94,76,58,30.04,29.89,6,0,0,0.00
2014-11-10,53.1,38.1,27.4,37.0,32.1,26.0,98,81,49,30.23,30.04,5,0,0,0.00
2014-11-11,59.8,45.4,31.0,51.0,42.4,30.0,99,90,70,30.22,29.99,5,1,0,0.00
2014-11-12,64.0,50.4,36.0,54.0,46.5,29.0,100,87,70,30.02,29.85,6,1,0,0.00
2014-11-13,45.0,36.2,26.4,31.0,28.4,24.0,94,75,53,30.09,29.98,5,0,0,0.01
2014-11-14,35.8,30.8,23.5,31.0,26.5,21.0,97,85,60,30.12,29.93,7,1,0,0.11
2014-11-15,34.7,25.9,19.4,22.0,18.5,16.0,95,75,52,30.38,30.12,6,0,3,0.00
2014-11-16,37.0,28.6,17.4,26.0,21.4,16.0,93,76,60,30.41,30.15,10,1,0,0.01
2014-11-17,44.2,36.1,31.9,44.0,34.7,25.0,99,95,73,30.14,29.46,6,1,0,1.18
2014-11-18,38.2,27.5,19.7,38.0,17.9,6.0,98,69,47,29.93,29.49,13,3,0,0.00
2014-11-19,29.6,22.9,17.1,13.0,9.5,7.0,67,57,44,30.18,29.93,9,2,0,0.00
2014-11-20,38.8,30.0,23.0,24.0,18.3,12.0,75,62,48,30.06,29.79,11,3,0,0.00
2014-11-21,28.4,23.1,19.1,16.0,12.1,7.0,79,64,50,30.44,29.94,7,2,0,0.00
2014-11-22,35.9,27.7,17.5,22.0,14.2,10.0,78,59,39,30.45,30.10,12,4,0,0.00
2014-11-23,53.0,40.6,32.0,40.0,30.9,22.0,91,69,57,30.17,30.10,6,1,0,0.00
2014-11-24,60.9,53.2,33.5,60.0,51.9,30.0,100,95,87,30.08,29.57,15,5,0,0.19
2014-11-25,58.2,49.7,32.2,55.0,40.9,30.0,93,74,51,30.12,29.71,18,2,0,0.00
2014-11-26,36.5,32.3,29.7,32.0,30.5,29.0,97,93,79,30.21,29.74,3,0,0,0.01
2014-11-27,30.7,28.0,24.7,29.0,26.9,24.0,97,95,92,30.04,29.76,0,0,0,0.00
2014-11-28,28.9,23.7,18.0,26.0,21.9,16.0,96,92,86,30.25,30.02,0,0,0,0.00
2014-11-29,27.7,19.3,9.8,25.0,17.0,8.0,94,90,81,30.38,30.23,0,0,0,0.00
2014-11-30,46.5,39.0,27.8,41.0,35.8,26.0,97,88,80,30.28,30.05,9,2,0,0.00
2014-12-1,51.7,42.5,33.2,45.0,37.6,26.0,93,83,74,30.45,30.03,7,1,0,0.00
2014-12-2,32.8,28.7,26.2,30.0,22.9,17.0,96,79,65,30.71,30.41,9,2,0,0.00
2014-12-3,42.0,36.1,31.5,42.0,35.2,26.0,99,96,78,30.41,29.91,13,3,0,0.01
2014-12-4,36.8,30.0,20.7,27.0,22.5,19.0,92,74,60,30.57,30.12,6,1,0,0.00
2014-12-5,33.3,27.2,19.3,31.0,21.4,11.0,96,79,59,30.69,30.46,9,1,0,0.00
2014-12-6,35.3,33.8,31.9,35.0,33.3,31.0,99,98,97,30.45,30.17,6,1,0,0.00
2014-12-7,33.0,26.2,14.3,32.0,15.9,3.0,97,67,45,30.70,30.27,11,3,0,0.00
2014-12-8,22.3,16.3,10.4,21.0,9.9,-1.0,94,77,58,30.79,30.54,8,2,0,0.00
2014-12-9,36.8,31.4,21.6,36.0,30.7,20.0,98,97,94,30.54,29.59,19,5,0,0.03
2014-12-10,36.0,34.4,31.7,35.0,33.9,31.0,98,98,97,29.61,29.46,13,2,0,0.00
2014-12-11,31.7,29.1,26.6,31.0,28.4,26.0,98,97,95,29.81,29.46,4,1,0,0.00
2014-12-12,30.3,26.9,23.8,28.0,25.7,23.0,97,94,91,29.93,29.81,12,1,0,0.00
2014-12-13,34.2,28.8,25.8,29.0,26.2,24.0,94,90,82,29.92,29.83,9,2,0,0.00
2014-12-14,36.1,30.0,24.8,31.0,27.6,24.0,96,90,81,29.95,29.82,9,1,1,0.00
2014-12-15,37.8,30.7,23.7,31.0,27.5,23.0,96,88,74,30.17,29.94,9,1,0,0.00
2014-12-16,37.4,30.5,22.0,37.0,29.6,21.0,99,96,92,30.18,29.95,4,0,0,0.00
2014-12-17,42.4,37.7,32.8,42.0,36.9,31.0,99,97,91,29.95,29.73,6,2,0,0.00
2014-12-18,36.3,32.9,30.7,31.0,29.4,27.0,96,87,78,29.89,29.74,6,2,0,0.01
2014-12-19,30.7,28.1,21.7,27.0,23.2,19.0,88,82,77,30.17,29.89,9,1,2,0.00
2014-12-20,31.2,26.0,19.4,25.0,21.3,18.0,93,83,67,30.34,30.18,4,1,0,0.00
2014-12-21,30.5,28.0,25.5,29.0,26.0,24.0,94,92,86,30.39,30.30,6,1,0,0.00
2014-12-22,36.2,31.9,28.8,34.0,29.9,26.0,98,92,86,30.42,30.30,6,1,0,0.01
2014-12-23,38.9,36.6,34.2,39.0,36.3,34.0,99,98,97,30.30,30.18,12,3,0,0.13
2014-12-24,47.6,39.7,35.6,48.0,39.4,35.0,100,99,98,30.17,29.58,9,2,0,0.37
2014-12-25,59.0,46.8,37.6,59.0,41.8,30.0,100,83,67,29.98,29.48,9,4,0,0.05
2014-12-26,43.3,35.7,26.8,33.0,29.6,26.0,96,79,64,30.19,29.97,7,1,0,0.00
2014-12-27,45.9,33.7,25.1,37.0,30.5,24.0,98,89,70,30.26,30.05,9,0,0,0.00
2014-12-28,44.2,39.4,32.0,43.0,35.0,26.0,97,84,72,30.04,29.80,6,2,0,0.01
2014-12-29,37.0,29.1,23.0,26.0,20.3,14.0,94,71,52,30.23,30.00,4,1,0,0.00
2014-12-30,25.5,18.5,10.8,13.0,5.8,-5.0,82,60,28,30.37,30.24,10,1,0,0.00
2014-12-31,23.9,14.3,6.4,11.0,6.3,3.0,87,72,49,30.34,30.14,6,1,0,0.00
2015-1-1,27.3,20.0,6.1,15.0,9.1,3.0,89,64,49,30.13,29.94,9,3,0,0.00
2015-1-2,32.6,28.3,24.1,23.0,17.0,14.0,70,63,55,30.46,29.96,10,2,0,0.00